»·PEaware :: N136EU KJAC-U01

N136EU :: KJAC-U01

FLIGHT INFORMATION

Flight Status: Arrived
Operator: Privately registered:
United States
More flights under this callsign
Pilot: Ben H. (9170)
Aircraft: BEECH AIRCRAFT BONANZA
(BE36)
More flights by this aircraft type
Origin: KJAC Jackson Hole
United States
Destination: U01 American Falls
United States
More flights between these airports :: More routes between these airports
Route: +ALPIN2 KICNE IDA V21 PIH
File this flight plan on PilotEdge
Remarks:
Altitude:
(Current/Filed)
14,000ft
Speed:
(Current/Filed)
150kts
Departed: 09-Mar-19 09:29 PM
Arrived: 09-Mar-19 10:25 PM
Distance/Time
Traveled:
104nm/0:56
Distance/Time
To Go:
Arrived

Flight Plot

Page will automatically refresh every two minutes.

Flight plan parsing failed; only flown route is shown


Map Options




Map Legend


Flown Route
Filed Route
Departure Airport
Arrival Airport
Navaid (VOR, NDB)
Fix

Horizontal Profiles

Position Reports

Time Latitude Longitude Heading Altitude Ground
Speed
09-Mar-19 21:15 43.599699 -110.739131 108 6455ft 0kts
09-Mar-19 21:16 43.599699 -110.739131 108 6455ft 0kts
09-Mar-19 21:17 43.599699 -110.739131 108 6455ft 0kts
09-Mar-19 21:18 43.599699 -110.739131 108 6455ft 0kts
09-Mar-19 21:19 43.599699 -110.739131 108 6455ft 0kts
09-Mar-19 21:20 43.599887 -110.739033 298 6455ft 6kts
09-Mar-19 21:21 43.602815 -110.738373 18 6455ft 15kts
09-Mar-19 21:22 43.607542 -110.736057 18 6455ft 19kts
09-Mar-19 21:23 43.613285 -110.733227 18 6455ft 23kts
09-Mar-19 21:24 43.615008 -110.732321 207 6455ft 0kts
09-Mar-19 21:25 43.615008 -110.732321 207 6455ft 0kts
09-Mar-19 21:26 43.615004 -110.732325 224 6455ft 0kts
09-Mar-19 21:27 43.615052 -110.732729 290 6455ft 5kts
09-Mar-19 21:28 43.602166 -110.740753 202 6725ft 94kts
09-Mar-19 21:29 43.578464 -110.755985 210 7691ft 110kts
09-Mar-19 21:30 43.550577 -110.775272 206 8403ft 117kts
09-Mar-19 21:31 43.520202 -110.794930 206 9014ft 122kts
09-Mar-19 21:32 43.489163 -110.814929 206 9617ft 123kts
09-Mar-19 21:33 43.458234 -110.834824 206 10218ft 122kts
09-Mar-19 21:34 43.427932 -110.854263 205 10812ft 119kts
09-Mar-19 21:35 43.398177 -110.873395 205 11407ft 116kts
09-Mar-19 21:36 43.369369 -110.891834 205 11974ft 113kts
09-Mar-19 21:37 43.339636 -110.910915 205 12392ft 121kts
09-Mar-19 21:38 43.308721 -110.930716 205 12797ft 124kts
09-Mar-19 21:39 43.277291 -110.950823 206 13200ft 124kts
09-Mar-19 21:40 43.246178 -110.970658 206 13597ft 122kts
09-Mar-19 21:41 43.222887 -110.999434 268 13975ft 124kts
09-Mar-19 21:42 43.236083 -111.049049 286 13996ft 147kts
09-Mar-19 21:43 43.251687 -111.103045 285 13998ft 155kts
09-Mar-19 21:44 43.267348 -111.158822 284 13999ft 157kts
09-Mar-19 21:45 43.283226 -111.215099 285 13998ft 159kts
09-Mar-19 21:46 43.299261 -111.271873 285 13998ft 159kts
09-Mar-19 21:47 43.315230 -111.328585 285 13998ft 159kts
09-Mar-19 21:48 43.331118 -111.385141 285 13999ft 159kts
09-Mar-19 21:49 43.347060 -111.442017 285 14001ft 159kts
09-Mar-19 21:50 43.362998 -111.499010 285 14003ft 159kts
09-Mar-19 21:51 43.378783 -111.555586 285 14005ft 158kts
09-Mar-19 21:52 43.394554 -111.612243 285 14007ft 158kts
09-Mar-19 21:53 43.410364 -111.669177 284 14009ft 158kts
09-Mar-19 21:54 43.426048 -111.725790 284 14009ft 159kts
09-Mar-19 21:55 43.441767 -111.782655 284 14009ft 159kts
09-Mar-19 21:56 43.457525 -111.839790 284 14009ft 159kts
09-Mar-19 21:57 43.473240 -111.896905 284 14009ft 159kts
09-Mar-19 21:59 43.488866 -111.953830 284 14009ft 159kts
09-Mar-19 22:00 43.504539 -112.011120 284 14009ft 159kts
09-Mar-19 22:01 43.510546 -112.068065 236 14009ft 148kts
09-Mar-19 22:02 43.477958 -112.102154 214 14008ft 148kts
09-Mar-19 22:03 43.443547 -112.133341 214 14008ft 148kts
09-Mar-19 22:04 43.409122 -112.164779 214 14008ft 148kts
09-Mar-19 22:05 43.374699 -112.196244 214 14008ft 148kts
09-Mar-19 22:06 43.340386 -112.227568 214 14007ft 148kts
09-Mar-19 22:07 43.304925 -112.259902 213 13723ft 159kts
09-Mar-19 22:08 43.267376 -112.293949 213 13217ft 162kts
09-Mar-19 22:09 43.229723 -112.328164 213 12707ft 162kts
09-Mar-19 22:10 43.191899 -112.362502 212 12196ft 163kts
09-Mar-19 22:11 43.153841 -112.397010 212 11686ft 164kts
09-Mar-19 22:12 43.115484 -112.431721 212 11176ft 166kts
09-Mar-19 22:13 43.076605 -112.466839 211 10663ft 167kts
09-Mar-19 22:14 43.037460 -112.502153 211 10152ft 169kts
09-Mar-19 22:15 42.998777 -112.537107 211 10006ft 163kts
09-Mar-19 22:16 42.961435 -112.570687 211 10006ft 159kts
09-Mar-19 22:17 42.924541 -112.603814 212 10006ft 157kts
09-Mar-19 22:18 42.890394 -112.640920 235 9921ft 161kts
09-Mar-19 22:18 42.875560 -112.688679 242 9234ft 174kts
09-Mar-19 22:20 42.842015 -112.757177 224 7633ft 177kts
09-Mar-19 22:21 42.821014 -112.818260 255 6165ft 191kts
09-Mar-19 22:21 42.811520 -112.868595 250 6075ft 135kts
09-Mar-19 22:23 42.788006 -112.864665 131 5242ft 100kts
09-Mar-19 22:23 42.789376 -112.839107 56 4625ft 85kts
09-Mar-19 22:24 42.797914 -112.824948 325 4426ft 0kts
09-Mar-19 22:25 42.796951 -112.827081 224 4423ft 23kts
09-Mar-19 22:26 42.796330 -112.828472 231 4419ft 0kts
09-Mar-19 22:27 42.796330 -112.828472 231 4419ft 0kts

Navigation Log

Ident Type
Flight plan parsing failed, navigation log unavailable